Weather at Mulu Airport

Public forecast

Using degrees Celsius for public forecast. Weather courtesy of forecast.io.

Closest aviation weather report (METAR) to Mulu Airport

Closest report is Miri Airport, 51.7 nm (95.7 km) WNW.

2024/05/23 05:00 (retrieved 60 minutes ago)

WBGR 230500Z 25008KT 210V320 9999 SCT016 31/26 Q1007

Closest aviation forecast (TAF) to Mulu Airport

Forecast is more than 6 hours old.

Closest forecast is Kosrae International Airport, 2,881.8 nm (5,337.1 km) E.

2024/05/22 22:03 (retrieved 8 hours ago)

TAF PTSA 222155Z 2222/2318 09010KT P6SM SCT020 FM230900 08008KT P6SM VCSH SCT020 SCT050